Time;durP1;ratioP1;P1;durP2;ratioP2;P2;SDS_P1;SDS_P2;PMS_P1;PMS_P2;Temp;Humidity;BMP_temperature;BMP_pressure;BME280_temperature;BME280_humidity;BME280_pressure;Samples;Min_cycle;Max_cycle;Signal;HPM_P1;HPM_P2
2021/11/30 00:02:03;;;;;;;5.35;1.80;;;5.40;99.90;;;;;;6241530;22;20035;-62
2021/11/30 00:04:29;;;;;;;4.18;0.57;;;5.40;99.90;;;;;;6241490;22;20008;-63
2021/11/30 00:06:56;;;;;;;7.43;0.70;;;5.40;99.90;;;;;;6241464;22;20549;-62
2021/11/30 00:12:00;;;;;;;2.10;0.52;;;5.50;99.90;;;;;;6242236;22;20513;-64
2021/11/30 00:14:25;;;;;;;6.38;0.63;;;5.40;99.90;;;;;;6241041;22;20008;-64
2021/11/30 00:16:51;;;;;;;5.38;0.77;;;5.50;99.90;;;;;;6241734;22;20070;-64
2021/11/30 00:19:16;;;;;;;5.82;1.50;;;5.50;99.90;;;;;;6241073;22;20008;-63
2021/11/30 00:21:42;;;;;;;2.92;0.50;;;5.50;99.90;;;;;;6241748;22;20012;-63
2021/11/30 00:24:08;;;;;;;2.97;0.88;;;5.50;99.90;;;;;;6241675;22;20012;-63
2021/11/30 00:26:33;;;;;;;6.90;0.52;;;5.50;99.90;;;;;;6239456;22;20047;-63
2021/11/30 00:28:59;;;;;;;4.05;0.70;;;5.50;99.90;;;;;;6242055;22;20505;-63
2021/11/30 00:31:25;;;;;;;6.53;1.27;;;5.50;99.90;;;;;;6240678;22;20012;-63
2021/11/30 00:33:50;;;;;;;4.82;0.75;;;5.40;99.90;;;;;;6241828;22;20338;-62
2021/11/30 00:36:17;;;;;;;3.25;0.60;;;5.40;99.90;;;;;;6240537;22;20054;-65
2021/11/30 00:38:43;;;;;;;4.80;0.80;;;5.40;99.90;;;;;;6241843;22;20071;-63
2021/11/30 00:41:09;;;;;;;6.95;0.75;;;5.30;99.90;;;;;;6240880;22;20438;-63
2021/11/30 00:43:37;;;;;;;3.25;1.00;;;5.30;99.90;;;;;;6241062;22;20609;-62
2021/11/30 00:46:15;;;;;;;2.33;0.60;;;5.30;99.90;;;;;;6240413;22;20008;-62
2021/11/30 00:48:41;;;;;;;6.63;0.90;;;5.30;99.90;;;;;;6241436;22;20020;-64
2021/11/30 00:51:19;;;;;;;5.90;0.93;;;5.20;99.90;;;;;;6240696;22;20016;-63
2021/11/30 00:53:47;;;;;;;2.95;0.90;;;5.20;99.90;;;;;;6241397;22;20012;-62
2021/11/30 00:56:14;;;;;;;5.50;0.60;;;5.10;99.90;;;;;;6240855;22;20446;-63
2021/11/30 00:58:40;;;;;;;7.28;1.02;;;5.10;99.90;;;;;;6241237;22;20334;-63
2021/11/30 01:01:05;;;;;;;5.30;1.05;;;5.20;99.90;;;;;;6240960;22;20087;-64
2021/11/30 01:03:32;;;;;;;5.20;0.90;;;5.10;99.90;;;;;;6239334;22;20048;-63
2021/11/30 01:05:57;;;;;;;3.55;0.50;;;5.10;99.90;;;;;;6241405;22;20078;-63
2021/11/30 01:08:23;;;;;;;3.90;0.52;;;5.00;99.90;;;;;;6240446;22;20426;-64
2021/11/30 01:10:49;;;;;;;10.63;1.20;;;5.00;99.90;;;;;;6241399;22;20012;-63
2021/11/30 01:13:16;;;;;;;3.67;0.85;;;5.00;99.90;;;;;;6241336;22;20342;-65
2021/11/30 01:15:42;;;;;;;4.75;0.52;;;5.00;99.90;;;;;;6240819;22;20135;-63
2021/11/30 01:18:08;;;;;;;3.20;0.55;;;5.00;99.90;;;;;;6240787;22;20008;-62
2021/11/30 01:20:33;;;;;;;5.55;0.43;;;5.00;99.90;;;;;;6240906;22;20031;-62
2021/11/30 01:22:59;;;;;;;1.30;0.60;;;5.00;99.90;;;;;;6241513;22;20016;-64
2021/11/30 01:25:26;;;;;;;6.68;1.38;;;5.10;99.90;;;;;;6240611;22;20015;-63
2021/11/30 01:27:52;;;;;;;2.78;1.17;;;5.00;99.90;;;;;;6241034;22;20342;-64
2021/11/30 01:30:17;;;;;;;2.42;1.05;;;4.90;99.90;;;;;;6239960;22;20016;-64
2021/11/30 01:32:45;;;;;;;4.00;1.63;;;4.90;99.90;;;;;;6241035;22;20012;-63
2021/11/30 01:35:12;;;;;;;10.45;1.75;;;4.90;99.90;;;;;;6240666;22;20019;-63
2021/11/30 01:37:39;;;;;;;8.70;1.98;;;4.80;99.90;;;;;;6240694;22;20008;-64
2021/11/30 01:40:09;;;;;;;15.93;1.63;;;4.70;99.90;;;;;;6240724;22;20012;-62
2021/11/30 01:42:35;;;;;;;6.78;2.58;;;4.70;99.90;;;;;;6240425;22;20015;-62
2021/11/30 01:45:06;;;;;;;6.60;2.30;;;4.80;99.90;;;;;;6240951;22;20016;-65
2021/11/30 01:50:00;;;;;;;6.47;2.88;;;4.60;99.90;;;;;;6241766;22;20016;-62
2021/11/30 01:52:27;;;;;;;6.45;2.35;;;4.70;99.90;;;;;;6239960;22;20372;-64
2021/11/30 01:54:53;;;;;;;7.32;2.20;;;4.60;99.90;;;;;;6241120;22;20009;-62
2021/11/30 01:57:22;;;;;;;6.28;3.08;;;4.70;99.90;;;;;;6239391;22;20019;-63
2021/11/30 01:59:49;;;;;;;5.57;2.88;;;4.70;99.90;;;;;;6241177;22;20043;-62
2021/11/30 02:02:15;;;;;;;9.57;3.40;;;4.70;99.90;;;;;;6240509;22;20015;-62
2021/11/30 02:04:41;;;;;;;8.20;2.95;;;4.80;99.90;;;;;;6240699;22;20112;-63
2021/11/30 02:07:08;;;;;;;6.15;2.63;;;4.80;99.90;;;;;;6240342;22;20375;-64
2021/11/30 02:09:36;;;;;;;5.85;2.65;;;4.80;99.90;;;;;;6240325;22;20016;-63
2021/11/30 02:12:03;;;;;;;5.47;2.85;;;4.80;99.90;;;;;;6240061;22;20008;-63
2021/11/30 02:14:29;;;;;;;4.75;2.42;;;4.90;99.90;;;;;;6240447;22;20065;-64
2021/11/30 02:16:55;;;;;;;4.45;2.30;;;4.90;99.90;;;;;;6240664;22;20016;-63
2021/11/30 02:19:20;;;;;;;3.80;2.05;;;4.90;99.90;;;;;;6239831;22;20019;-64
2021/11/30 02:21:46;;;;;;;3.00;2.03;;;4.90;99.90;;;;;;6240885;22;20017;-64
2021/11/30 02:24:12;;;;;;;3.58;1.85;;;5.00;99.90;;;;;;6239985;22;20013;-61
2021/11/30 02:26:40;;;;;;;3.67;1.70;;;5.00;99.90;;;;;;6240019;22;20508;-63
2021/11/30 02:29:07;;;;;;;3.58;1.90;;;5.00;99.90;;;;;;6239918;22;20066;-62
2021/11/30 02:31:36;;;;;;;4.10;2.00;;;5.00;99.90;;;;;;6240525;22;20035;-62
2021/11/30 02:34:04;;;;;;;3.83;1.98;;;5.00;99.90;;;;;;6240341;22;20031;-64
2021/11/30 02:36:47;;;;;;;5.45;2.00;;;5.00;99.90;;;;;;6240052;22;20316;-64
2021/11/30 02:39:20;;;;;;;4.63;1.55;;;5.10;99.90;;;;;;6240082;22;20039;-61
2021/11/30 02:41:47;;;;;;;2.78;1.55;;;5.10;99.90;;;;;;6240719;22;20138;-63
2021/11/30 02:44:16;;;;;;;1.60;1.30;;;5.10;99.90;;;;;;6240061;22;20012;-63
2021/11/30 02:46:45;;;;;;;2.65;1.80;;;5.20;99.90;;;;;;6240419;22;20016;-63
2021/11/30 02:49:14;;;;;;;2.15;1.48;;;5.20;99.90;;;;;;6239884;22;20016;-63
2021/11/30 02:51:46;;;;;;;2.80;1.65;;;5.20;99.90;;;;;;6240440;22;20323;-62
2021/11/30 02:54:15;;;;;;;1.73;1.27;;;5.20;99.90;;;;;;6238445;22;20523;-63
2021/11/30 02:56:50;;;;;;;2.10;1.25;;;5.30;99.90;;;;;;6240088;22;20016;-62
2021/11/30 02:59:16;;;;;;;2.20;1.30;;;5.30;99.90;;;;;;6240018;22;20019;-63
2021/11/30 03:01:57;;;;;;;2.35;1.25;;;5.40;99.90;;;;;;6240411;22;20032;-64
2021/11/30 03:04:23;;;;;;;2.90;1.65;;;5.30;99.90;;;;;;6238534;22;20008;-63
2021/11/30 03:06:49;;;;;;;1.67;1.20;;;5.40;99.90;;;;;;6238709;23;20016;-63
2021/11/30 03:09:14;;;;;;;1.98;1.33;;;5.50;99.90;;;;;;6239517;22;20020;-62
2021/11/30 03:11:41;;;;;;;1.83;1.20;;;5.50;99.90;;;;;;6242127;22;20008;-62
2021/11/30 03:14:07;;;;;;;2.58;1.40;;;5.50;99.90;;;;;;6241853;22;20008;-64
2021/11/30 03:16:33;;;;;;;1.75;1.33;;;5.50;99.90;;;;;;6241694;22;20100;-63
2021/11/30 03:18:59;;;;;;;2.63;1.58;;;5.50;99.90;;;;;;6240701;23;20084;-63
2021/11/30 03:21:25;;;;;;;3.08;1.70;;;5.50;99.90;;;;;;6241418;22;20027;-62
2021/11/30 03:23:51;;;;;;;2.65;1.80;;;5.60;99.90;;;;;;6239498;23;20062;-64
2021/11/30 03:26:17;;;;;;;3.88;2.05;;;5.60;99.90;;;;;;6242105;22;20377;-63
2021/11/30 03:28:43;;;;;;;3.42;2.30;;;5.70;99.90;;;;;;6242254;22;20005;-64
2021/11/30 03:31:21;;;;;;;3.38;1.95;;;5.60;99.90;;;;;;6242230;22;20345;-62
2021/11/30 03:33:59;;;;;;;2.90;1.52;;;5.70;99.90;;;;;;6242011;22;20012;-62
2021/11/30 03:36:25;;;;;;;4.10;1.77;;;5.70;99.90;;;;;;6241244;22;20008;-63
2021/11/30 03:38:51;;;;;;;3.15;2.08;;;5.80;99.90;;;;;;6242492;22;20138;-63
2021/11/30 03:41:16;;;;;;;2.60;2.00;;;5.80;99.90;;;;;;6241735;22;20067;-62
2021/11/30 03:43:42;;;;;;;6.30;2.10;;;5.80;99.90;;;;;;6241856;22;20012;-62
2021/11/30 03:46:07;;;;;;;3.72;1.88;;;5.90;99.90;;;;;;6241857;22;20027;-62
2021/11/30 03:48:33;;;;;;;3.08;2.05;;;5.90;99.90;;;;;;6241665;22;20010;-63
2021/11/30 03:50:59;;;;;;;4.53;1.60;;;6.00;99.90;;;;;;6241583;22;20020;-62
2021/11/30 03:53:25;;;;;;;2.83;1.45;;;6.10;99.90;;;;;;6240787;22;20160;-62
2021/11/30 03:55:50;;;;;;;4.97;1.10;;;6.30;99.90;;;;;;6242373;22;20058;-62
2021/11/30 03:58:16;;;;;;;2.60;1.40;;;6.50;99.90;;;;;;6242001;22;20016;-64
2021/11/30 04:00:42;;;;;;;2.67;1.10;;;6.80;99.90;;;;;;6241441;22;21153;-62
2021/11/30 04:03:08;;;;;;;6.10;1.48;;;6.90;99.90;;;;;;6241672;22;20012;-63
2021/11/30 04:05:34;;;;;;;4.32;1.30;;;7.00;99.90;;;;;;6239449;22;20031;-63
2021/11/30 04:07:59;;;;;;;5.50;1.52;;;7.20;99.90;;;;;;6241953;22;20035;-63
2021/11/30 04:10:26;;;;;;;5.00;1.40;;;7.30;99.90;;;;;;6240261;22;20008;-62
2021/11/30 04:12:52;;;;;;;3.72;1.10;;;7.40;99.90;;;;;;6239984;23;20020;-62
2021/11/30 04:15:18;;;;;;;4.07;1.30;;;7.50;99.90;;;;;;6238288;22;20031;-63
2021/11/30 04:17:45;;;;;;;4.03;1.85;;;7.50;99.90;;;;;;6241952;22;20039;-62
2021/11/30 04:20:11;;;;;;;8.02;1.95;;;7.60;99.90;;;;;;6240798;22;20023;-62
2021/11/30 04:22:38;;;;;;;5.60;1.92;;;7.70;99.90;;;;;;6238998;22;20008;-62
2021/11/30 04:25:05;;;;;;;7.20;1.80;;;7.80;99.90;;;;;;6241071;22;20023;-63
2021/11/30 04:27:32;;;;;;;6.97;1.75;;;7.70;99.90;;;;;;6240871;22;20038;-62
2021/11/30 04:29:58;;;;;;;7.68;2.33;;;7.70;99.90;;;;;;6241502;22;20074;-65
2021/11/30 04:32:25;;;;;;;6.72;2.25;;;7.80;99.90;;;;;;6240307;22;20013;-62
2021/11/30 04:34:51;;;;;;;6.30;1.75;;;7.80;99.90;;;;;;6241608;22;20082;-62
2021/11/30 04:37:16;;;;;;;6.72;2.28;;;7.90;99.90;;;;;;6241154;22;20512;-62
2021/11/30 04:39:42;;;;;;;6.10;2.22;;;7.90;99.90;;;;;;6241830;22;20012;-63
2021/11/30 04:42:08;;;;;;;7.60;2.60;;;8.00;99.90;;;;;;6239423;22;20008;-64
2021/11/30 04:44:35;;;;;;;8.55;2.42;;;7.90;99.90;;;;;;6240706;22;20034;-63
2021/11/30 04:47:10;;;;;;;5.63;2.50;;;8.00;99.90;;;;;;6242099;22;20091;-64
2021/11/30 04:49:44;;;;;;;11.57;2.50;;;7.90;99.90;;;;;;6238893;22;20012;-62
2021/11/30 04:52:12;;;;;;;8.25;2.80;;;8.00;99.90;;;;;;6239110;22;20066;-63
2021/11/30 04:54:38;;;;;;;9.85;2.30;;;8.10;99.90;;;;;;6239062;22;20016;-62
2021/11/30 04:57:04;;;;;;;5.70;2.03;;;8.10;99.90;;;;;;6240862;22;20024;-63
2021/11/30 04:59:30;;;;;;;13.00;2.47;;;8.10;99.90;;;;;;6240660;22;20125;-62
2021/11/30 05:01:56;;;;;;;7.63;2.25;;;8.10;99.90;;;;;;6239292;23;20066;-62
2021/11/30 05:04:22;;;;;;;7.55;2.45;;;8.20;99.90;;;;;;6239931;22;20047;-62
2021/11/30 05:06:47;;;;;;;5.85;1.98;;;8.20;99.90;;;;;;6241061;22;20386;-62
2021/11/30 05:09:13;;;;;;;9.88;3.22;;;8.20;99.90;;;;;;6240685;22;20139;-63
2021/11/30 05:11:39;;;;;;;5.18;2.20;;;8.30;99.90;;;;;;6240331;22;20011;-62
2021/11/30 05:14:05;;;;;;;5.65;1.80;;;8.20;99.90;;;;;;6240607;22;20065;-63
2021/11/30 05:16:31;;;;;;;6.90;1.83;;;8.30;99.90;;;;;;6240199;22;20116;-63
2021/11/30 05:18:58;;;;;;;9.77;2.03;;;8.40;99.90;;;;;;6241184;22;20011;-62
2021/11/30 05:21:24;;;;;;;6.70;1.85;;;8.40;99.90;;;;;;6239521;22;20130;-64
2021/11/30 05:23:50;;;;;;;5.95;2.10;;;8.40;99.90;;;;;;6241194;22;20008;-62
2021/11/30 05:26:16;;;;;;;9.13;2.30;;;8.50;99.90;;;;;;6240363;22;20087;-62
2021/11/30 05:28:42;;;;;;;9.07;2.53;;;8.60;99.90;;;;;;6240256;22;20008;-62
2021/11/30 05:31:09;;;;;;;6.57;1.70;;;8.50;99.90;;;;;;6239239;22;20016;-63
2021/11/30 05:33:36;;;;;;;10.85;3.00;;;8.60;99.90;;;;;;6239932;22;20176;-62
2021/11/30 05:36:03;;;;;;;5.68;2.20;;;8.60;99.90;;;;;;6238296;23;20012;-62
2021/11/30 05:38:29;;;;;;;7.72;2.15;;;8.60;99.90;;;;;;6239975;22;20008;-62
2021/11/30 05:40:55;;;;;;;6.72;2.00;;;8.60;99.90;;;;;;6240227;22;20008;-63
2021/11/30 05:43:21;;;;;;;9.13;2.42;;;8.60;99.90;;;;;;6239040;22;20008;-63
2021/11/30 05:45:47;;;;;;;5.68;2.05;;;8.60;99.90;;;;;;6240508;22;20012;-63
2021/11/30 05:48:13;;;;;;;10.32;2.35;;;8.60;99.90;;;;;;6240083;22;20521;-62
2021/11/30 05:50:40;;;;;;;6.60;2.60;;;8.70;99.90;;;;;;6237622;22;20087;-61
2021/11/30 05:53:06;;;;;;;6.93;1.88;;;8.60;99.90;;;;;;6240039;22;20450;-62
2021/11/30 05:55:32;;;;;;;21.95;3.67;;;8.70;99.90;;;;;;6238227;22;20008;-62
2021/11/30 05:57:58;;;;;;;9.15;2.38;;;8.70;99.90;;;;;;6234840;22;20059;-62
2021/11/30 06:00:26;;;;;;;7.88;2.10;;;8.70;99.90;;;;;;6236942;22;20012;-62
2021/11/30 06:02:59;;;;;;;11.43;2.05;;;8.80;99.90;;;;;;6235824;23;20047;-63
2021/11/30 06:05:26;;;;;;;11.80;2.65;;;8.80;99.90;;;;;;6234315;22;20012;-63
2021/11/30 06:07:52;;;;;;;6.10;1.98;;;8.80;99.90;;;;;;6235079;23;20106;-64
2021/11/30 06:10:18;;;;;;;12.43;2.55;;;8.80;99.90;;;;;;6236415;22;20393;-62
2021/11/30 06:12:44;;;;;;;14.20;3.28;;;8.70;99.90;;;;;;6235868;22;20074;-62
2021/11/30 06:15:10;;;;;;;8.60;3.28;;;8.80;99.90;;;;;;6236800;22;20091;-62
2021/11/30 06:17:36;;;;;;;10.85;2.17;;;8.80;99.90;;;;;;6237139;22;20008;-62
2021/11/30 06:20:03;;;;;;;14.75;2.72;;;8.70;99.90;;;;;;6236704;22;20081;-64
2021/11/30 06:22:29;;;;;;;12.40;2.55;;;8.80;99.90;;;;;;6237145;22;20493;-62
2021/11/30 06:24:54;;;;;;;13.07;2.55;;;8.70;99.90;;;;;;6237400;22;20043;-63
2021/11/30 06:27:20;;;;;;;7.70;2.80;;;8.70;99.90;;;;;;6236535;22;20012;-63
2021/11/30 06:29:46;;;;;;;10.80;2.45;;;8.80;99.90;;;;;;6237135;22;20027;-62
2021/11/30 06:32:11;;;;;;;6.03;1.75;;;8.80;99.90;;;;;;6237281;22;20016;-62
2021/11/30 06:34:37;;;;;;;5.18;1.95;;;8.80;99.90;;;;;;6236471;22;20083;-61
2021/11/30 06:37:07;;;;;;;8.95;1.90;;;8.80;99.90;;;;;;6236894;22;20018;-63
2021/11/30 06:39:34;;;;;;;12.25;2.35;;;8.90;99.90;;;;;;6237080;22;20027;-61
2021/11/30 06:41:59;;;;;;;10.60;2.58;;;8.80;99.90;;;;;;6237218;22;20016;-63
2021/11/30 06:44:25;;;;;;;10.80;2.88;;;8.80;99.90;;;;;;6235195;22;20016;-63
2021/11/30 06:46:51;;;;;;;12.93;2.78;;;8.90;99.90;;;;;;6239467;22;20392;-61
2021/11/30 06:49:16;;;;;;;11.50;3.10;;;8.90;99.90;;;;;;6239071;22;20040;-63
2021/11/30 06:51:43;;;;;;;14.82;3.40;;;8.90;99.90;;;;;;6239270;22;20035;-61
2021/11/30 06:54:09;;;;;;;10.98;2.53;;;8.90;99.90;;;;;;6239082;22;20016;-64
2021/11/30 06:56:35;;;;;;;8.43;2.42;;;8.90;99.90;;;;;;6238979;22;20012;-62
2021/11/30 06:59:00;;;;;;;13.98;2.08;;;8.80;99.90;;;;;;6239765;22;20008;-61
2021/11/30 07:01:28;;;;;;;11.48;1.80;;;8.90;99.90;;;;;;6238635;22;20378;-63
2021/11/30 07:03:54;;;;;;;11.70;2.50;;;9.00;99.90;;;;;;6239263;22;20019;-62
2021/11/30 07:06:38;;;;;;;11.02;1.60;;;8.90;99.90;;;;;;6238007;22;20012;-63
2021/11/30 07:09:21;;;;;;;4.10;1.20;;;9.00;99.90;;;;;;6237028;22;20338;-62
2021/11/30 07:14:32;;;;;;;9.73;1.67;;;9.10;99.90;;;;;;6238724;22;20511;-64
2021/11/30 07:16:58;;;;;;;5.15;1.63;;;9.20;99.90;;;;;;6238863;22;20008;-63
2021/11/30 07:19:24;;;;;;;16.83;2.42;;;9.20;99.90;;;;;;6238239;22;20057;-63
2021/11/30 07:21:50;;;;;;;12.05;2.03;;;9.20;99.90;;;;;;6239133;22;20346;-62
2021/11/30 07:24:15;;;;;;;4.97;1.15;;;9.20;99.90;;;;;;6236872;22;20030;-64
2021/11/30 07:26:41;;;;;;;11.07;1.65;;;9.10;99.90;;;;;;6238460;22;20012;-62
2021/11/30 07:29:06;;;;;;;5.50;1.23;;;9.20;99.90;;;;;;6238665;22;20016;-62
2021/11/30 07:31:33;;;;;;;7.13;1.45;;;9.20;99.90;;;;;;6238660;22;20511;-62
2021/11/30 07:34:00;;;;;;;7.28;1.67;;;9.20;99.90;;;;;;6238726;22;20008;-61
2021/11/30 07:36:27;;;;;;;6.05;1.10;;;9.30;99.90;;;;;;6237776;22;20706;-62
2021/11/30 07:38:53;;;;;;;10.85;2.17;;;9.40;99.90;;;;;;6239192;22;20016;-61
2021/11/30 07:41:19;;;;;;;11.15;1.83;;;9.30;99.90;;;;;;6238301;22;20098;-63
2021/11/30 07:43:46;;;;;;;11.30;2.95;;;9.30;99.90;;;;;;6238557;22;20004;-62
2021/11/30 07:46:11;;;;;;;10.77;1.48;;;9.30;99.90;;;;;;6237803;22;20436;-62
2021/11/30 07:48:37;;;;;;;6.82;1.65;;;9.30;99.90;;;;;;6238329;22;20028;-63
2021/11/30 07:51:05;;;;;;;11.25;1.35;;;9.40;99.90;;;;;;6236857;22;20875;-64
2021/11/30 07:53:30;;;;;;;9.90;1.88;;;9.30;99.90;;;;;;6238815;22;20012;-63
2021/11/30 07:55:56;;;;;;;10.73;2.10;;;9.40;99.90;;;;;;6238095;22;20027;-63
2021/11/30 07:58:22;;;;;;;6.07;1.40;;;9.40;99.90;;;;;;6238260;22;20016;-62
2021/11/30 08:00:50;;;;;;;5.30;2.00;;;9.40;99.90;;;;;;6238649;22;20089;-61
2021/11/30 08:03:16;;;;;;;5.80;1.10;;;9.50;99.90;;;;;;6237964;22;20019;-62
2021/11/30 08:05:42;;;;;;;6.05;1.10;;;9.50;99.90;;;;;;6238495;22;20028;-63
2021/11/30 08:08:08;;;;;;;11.88;1.33;;;9.50;99.90;;;;;;6238486;22;20008;-63
2021/11/30 08:10:33;;;;;;;6.75;1.25;;;9.50;99.90;;;;;;6238817;22;20012;-62
2021/11/30 08:12:59;;;;;;;4.38;1.10;;;9.40;99.90;;;;;;6238556;22;20050;-62
2021/11/30 08:15:26;;;;;;;4.05;1.20;;;9.40;99.90;;;;;;6237331;22;20004;-61
2021/11/30 08:17:52;;;;;;;6.13;1.35;;;9.40;99.90;;;;;;6238809;22;20035;-63
2021/11/30 08:20:18;;;;;;;6.97;1.83;;;9.40;99.90;;;;;;6238071;22;20008;-63
2021/11/30 08:22:45;;;;;;;26.38;1.10;;;9.40;99.90;;;;;;6238949;22;20629;-62
2021/11/30 08:25:13;;;;;;;5.07;0.88;;;9.50;99.90;;;;;;6237931;22;20154;-63
2021/11/30 08:27:39;;;;;;;8.05;1.33;;;9.40;99.90;;;;;;6238022;22;21108;-62
2021/11/30 08:30:06;;;;;;;5.93;1.05;;;9.40;99.90;;;;;;6238027;22;20015;-62
2021/11/30 08:32:33;;;;;;;7.60;1.73;;;9.50;99.90;;;;;;6238051;22;20477;-62
2021/11/30 08:34:59;;;;;;;3.28;0.82;;;9.50;99.90;;;;;;6238954;22;20012;-61
2021/11/30 08:37:25;;;;;;;7.50;0.88;;;9.50;99.90;;;;;;6237367;22;20387;-63
2021/11/30 08:39:52;;;;;;;6.65;0.95;;;9.50;99.90;;;;;;6238657;22;20100;-62
2021/11/30 08:42:19;;;;;;;7.88;0.90;;;9.50;99.90;;;;;;6238171;22;20012;-61
2021/11/30 08:44:47;;;;;;;6.57;1.20;;;9.40;99.90;;;;;;6237482;22;20016;-62
2021/11/30 08:47:15;;;;;;;8.05;0.95;;;9.50;99.90;;;;;;6235447;22;20016;-63
2021/11/30 08:49:41;;;;;;;13.82;1.33;;;9.50;99.90;;;;;;6237718;22;20032;-63
2021/11/30 08:52:12;;;;;;;5.50;1.02;;;9.50;99.90;;;;;;6237980;22;20019;-62
2021/11/30 08:54:38;;;;;;;6.60;0.88;;;9.50;99.90;;;;;;6237581;22;20008;-64
2021/11/30 08:57:05;;;;;;;6.35;0.77;;;9.60;99.90;;;;;;6237572;22;20130;-63
2021/11/30 08:59:31;;;;;;;7.75;0.85;;;9.60;99.90;;;;;;6235995;22;20012;-62
2021/11/30 09:01:56;;;;;;;4.45;0.63;;;9.60;99.90;;;;;;6238438;22;20012;-62
2021/11/30 09:04:22;;;;;;;8.35;0.93;;;9.60;99.90;;;;;;6236104;22;20012;-62
2021/11/30 09:06:48;;;;;;;4.63;0.90;;;9.60;99.90;;;;;;6235536;23;20012;-61
2021/11/30 09:09:14;;;;;;;5.25;0.70;;;9.70;99.90;;;;;;6237575;22;20396;-63
2021/11/30 09:11:41;;;;;;;7.70;1.98;;;9.70;99.90;;;;;;6237738;22;20032;-62
2021/11/30 09:14:08;;;;;;;3.55;1.25;;;9.70;99.90;;;;;;6237715;22;20015;-62
2021/11/30 09:16:34;;;;;;;10.02;1.10;;;9.70;99.90;;;;;;6237112;22;20472;-62
2021/11/30 09:19:00;;;;;;;12.50;1.20;;;9.70;99.90;;;;;;6238404;22;20005;-62
2021/11/30 09:21:27;;;;;;;13.65;1.38;;;9.70;99.90;;;;;;6237143;22;20011;-62
2021/11/30 09:23:54;;;;;;;8.00;1.50;;;9.70;99.90;;;;;;6238172;22;20042;-61
2021/11/30 09:26:20;;;;;;;10.77;2.67;;;9.70;99.90;;;;;;6237013;22;20040;-62
2021/11/30 09:28:46;;;;;;;4.78;1.50;;;9.70;99.90;;;;;;6238182;22;20319;-62
2021/11/30 09:31:13;;;;;;;8.98;1.75;;;9.80;99.90;;;;;;6235866;22;20020;-62
2021/11/30 09:33:40;;;;;;;12.23;1.88;;;9.80;99.90;;;;;;6237737;22;20073;-61
2021/11/30 09:36:07;;;;;;;5.85;1.45;;;9.80;99.90;;;;;;6237035;22;20030;-62
2021/11/30 09:38:33;;;;;;;10.32;1.90;;;9.80;99.90;;;;;;6237701;22;20725;-61
2021/11/30 09:41:01;;;;;;;5.93;1.23;;;9.90;99.90;;;;;;6238351;22;20019;-63
2021/11/30 09:43:31;;;;;;;20.33;2.15;;;9.90;99.90;;;;;;6234825;22;20099;-61
2021/11/30 09:45:57;;;;;;;14.15;1.58;;;9.90;99.90;;;;;;6237960;22;20023;-62
2021/11/30 09:48:24;;;;;;;10.90;1.85;;;9.90;99.90;;;;;;6236757;22;20011;-62
2021/11/30 09:50:50;;;;;;;5.28;1.42;;;9.90;99.90;;;;;;6237916;22;20023;-61
2021/11/30 09:53:18;;;;;;;11.48;2.10;;;9.90;99.90;;;;;;6235503;22;20019;-62
2021/11/30 09:55:46;;;;;;;8.50;1.50;;;9.90;99.90;;;;;;6236568;22;20039;-63
2021/11/30 09:58:13;;;;;;;6.20;1.00;;;10.00;99.90;;;;;;6237474;22;20065;-62
2021/11/30 10:00:39;;;;;;;8.00;2.17;;;9.90;99.90;;;;;;6237176;22;20446;-63
2021/11/30 10:03:05;;;;;;;15.35;1.77;;;9.90;99.90;;;;;;6236110;22;20375;-64
2021/11/30 10:05:32;;;;;;;9.25;1.73;;;9.90;99.90;;;;;;6237181;22;20089;-61
2021/11/30 10:08:00;;;;;;;13.48;2.28;;;9.90;99.90;;;;;;6238017;22;20012;-62
2021/11/30 10:10:33;;;;;;;13.80;1.77;;;9.90;99.90;;;;;;6236550;22;20422;-62
2021/11/30 10:12:59;;;;;;;8.55;1.48;;;9.90;99.90;;;;;;6238410;22;20681;-61
2021/11/30 10:15:25;;;;;;;12.00;1.50;;;9.90;99.90;;;;;;6236783;22;20035;-62
2021/11/30 10:17:51;;;;;;;15.00;1.20;;;10.00;99.90;;;;;;6237827;22;20008;-61
2021/11/30 10:20:17;;;;;;;8.43;1.65;;;10.00;99.90;;;;;;6236928;22;20476;-62
2021/11/30 10:22:51;;;;;;;6.57;1.40;;;9.90;99.90;;;;;;6237034;22;20023;-62
2021/11/30 10:25:28;;;;;;;10.80;2.38;;;10.00;99.90;;;;;;6237192;22;20426;-61
2021/11/30 10:28:00;;;;;;;9.57;1.98;;;10.00;99.90;;;;;;6237634;22;20048;-61
2021/11/30 10:30:29;;;;;;;8.13;1.30;;;10.00;99.90;;;;;;6236850;22;20024;-64
2021/11/30 10:32:58;;;;;;;16.23;1.85;;;10.00;99.90;;;;;;6235963;23;20008;-61
2021/11/30 10:35:27;;;;;;;11.23;2.25;;;10.00;99.90;;;;;;6236217;22;20013;-62
2021/11/30 10:37:53;;;;;;;9.90;2.10;;;10.00;99.90;;;;;;6237593;22;20022;-62
2021/11/30 10:40:24;;;;;;;9.80;1.17;;;10.10;99.90;;;;;;6236637;22;20019;-64
2021/11/30 10:43:05;;;;;;;7.28;1.42;;;10.00;99.90;;;;;;6237654;22;20012;-61
2021/11/30 10:45:43;;;;;;;6.85;1.55;;;10.10;99.90;;;;;;6236606;22;20580;-62
2021/11/30 10:48:14;;;;;;;16.48;3.75;;;10.10;99.90;;;;;;6237056;22;20012;-62
2021/11/30 10:50:45;;;;;;;6.60;1.75;;;10.10;99.90;;;;;;6236350;22;20115;-61
2021/11/30 10:53:37;;;;;;;10.05;1.13;;;10.20;99.90;;;;;;6237342;22;20020;-62
2021/11/30 10:56:07;;;;;;;9.38;1.23;;;10.10;99.90;;;;;;6234209;22;20012;-60
2021/11/30 10:58:42;;;;;;;3.92;1.13;;;10.20;99.90;;;;;;6237118;22;20008;-61
2021/11/30 11:01:19;;;;;;;7.13;1.25;;;10.10;99.90;;;;;;6231902;22;20031;-61
2021/11/30 11:03:46;;;;;;;4.45;1.08;;;10.20;99.90;;;;;;6235549;22;20004;-61
2021/11/30 11:06:31;;;;;;;13.25;2.55;;;10.20;99.90;;;;;;6233957;22;20016;-62
2021/11/30 11:09:04;;;;;;;8.30;1.30;;;10.20;99.90;;;;;;6235445;22;20507;-62
2021/11/30 11:11:41;;;;;;;6.20;1.30;;;10.10;99.90;;;;;;6234213;22;20465;-61
2021/11/30 11:14:20;;;;;;;4.45;0.98;;;10.10;99.90;;;;;;6237126;22;20027;-63
2021/11/30 11:16:52;;;;;;;8.18;1.20;;;10.10;99.90;;;;;;6237128;22;20055;-62
2021/11/30 11:19:36;;;;;;;9.52;1.63;;;10.20;99.90;;;;;;6236899;22;20130;-63
2021/11/30 11:22:17;;;;;;;9.00;1.65;;;10.10;99.90;;;;;;6237394;23;20019;-61
2021/11/30 11:24:43;;;;;;;3.78;0.75;;;10.10;99.90;;;;;;6238549;22;20012;-64
2021/11/30 11:27:11;;;;;;;6.10;1.08;;;10.10;99.90;;;;;;6236425;22;20286;-63
2021/11/30 11:29:41;;;;;;;8.50;1.25;;;10.00;99.90;;;;;;6232791;22;20008;-62
2021/11/30 11:32:08;;;;;;;6.55;1.23;;;10.10;99.90;;;;;;6234951;22;20032;-63
2021/11/30 11:34:35;;;;;;;7.60;1.45;;;10.10;99.90;;;;;;6232273;22;20008;-62
2021/11/30 11:37:03;;;;;;;10.73;1.27;;;10.10;99.90;;;;;;6236116;22;20020;-63
2021/11/30 11:39:30;;;;;;;9.85;2.20;;;10.20;99.90;;;;;;6234357;22;20095;-62
2021/11/30 11:41:59;;;;;;;12.75;1.15;;;10.10;99.90;;;;;;6236325;22;20016;-62
2021/11/30 11:44:26;;;;;;;3.38;0.93;;;10.10;99.90;;;;;;6235244;22;20012;-61
2021/11/30 11:46:54;;;;;;;5.40;0.90;;;10.20;99.90;;;;;;6235620;22;20027;-62
2021/11/30 11:49:22;;;;;;;6.60;1.35;;;10.10;99.90;;;;;;6233506;22;20399;-62
2021/11/30 11:51:49;;;;;;;8.25;1.35;;;10.10;99.90;;;;;;6237928;22;20489;-61
2021/11/30 11:54:33;;;;;;;6.35;0.90;;;10.20;99.90;;;;;;6235971;22;20008;-62
2021/11/30 11:57:05;;;;;;;7.32;1.00;;;10.20;99.90;;;;;;6235714;23;20016;-62
2021/11/30 11:59:34;;;;;;;2.95;0.68;;;10.20;99.90;;;;;;6237848;22;20008;-62
2021/11/30 12:02:20;;;;;;;5.05;1.05;;;10.20;99.90;;;;;;6235863;23;20346;-63
2021/11/30 12:05:02;;;;;;;5.72;1.65;;;10.20;99.90;;;;;;6236036;22;20071;-61
2021/11/30 12:07:58;;;;;;;5.53;1.20;;;10.20;99.90;;;;;;6235004;22;20087;-62
2021/11/30 12:10:32;;;;;;;5.70;1.10;;;10.30;99.90;;;;;;6237896;22;20035;-63
2021/11/30 12:13:00;;;;;;;9.00;1.40;;;10.20;99.90;;;;;;6237082;23;20753;-61
2021/11/30 12:16:04;;;;;;;5.35;1.40;;;10.20;99.90;;;;;;6237020;22;20458;-62
2021/11/30 12:18:32;;;;;;;3.67;1.00;;;10.10;99.90;;;;;;6234509;22;20437;-61
2021/11/30 12:21:12;;;;;;;8.18;1.90;;;10.20;99.90;;;;;;6238821;22;20018;-62
2021/11/30 12:23:38;;;;;;;10.57;1.58;;;10.20;99.90;;;;;;6237962;22;20000;-61
2021/11/30 12:26:15;;;;;;;3.60;0.93;;;10.20;99.90;;;;;;6238450;22;20816;-61
2021/11/30 12:28:41;;;;;;;7.88;1.50;;;10.10;99.90;;;;;;6238195;22;20016;-62
2021/11/30 12:31:27;;;;;;;6.38;1.20;;;10.20;99.90;;;;;;6238146;22;20544;-62
2021/11/30 12:33:53;;;;;;;5.72;1.23;;;10.20;99.90;;;;;;6237107;22;20016;-63
2021/11/30 12:36:30;;;;;;;11.88;2.03;;;10.20;99.90;;;;;;6236983;22;20015;-61
2021/11/30 12:38:58;;;;;;;11.13;1.77;;;10.20;99.90;;;;;;6234905;23;20018;-62
2021/11/30 12:41:36;;;;;;;8.88;1.27;;;10.10;99.90;;;;;;6237268;22;20097;-62
2021/11/30 12:44:22;;;;;;;10.85;1.52;;;10.20;99.90;;;;;;6237983;22;20018;-61
2021/11/30 12:46:50;;;;;;;7.13;1.52;;;10.20;99.90;;;;;;6237174;22;20398;-61
2021/11/30 12:49:25;;;;;;;12.43;2.22;;;10.20;99.90;;;;;;6237869;22;20016;-61
2021/11/30 12:52:09;;;;;;;11.82;2.20;;;10.20;99.90;;;;;;6236721;22;20028;-61
2021/11/30 12:54:36;;;;;;;10.90;1.05;;;10.20;99.90;;;;;;6235624;22;20094;-62
2021/11/30 12:57:03;;;;;;;11.70;2.13;;;10.20;99.90;;;;;;6236870;22;20020;-62
2021/11/30 12:59:37;;;;;;;3.47;1.02;;;10.20;99.90;;;;;;6235501;22;20043;-62
2021/11/30 13:02:15;;;;;;;5.80;1.35;;;10.30;99.90;;;;;;6237072;22;20096;-62
2021/11/30 13:04:40;;;;;;;11.55;1.52;;;10.30;99.90;;;;;;6235894;22;20008;-62
2021/11/30 13:07:08;;;;;;;18.83;1.40;;;10.20;99.90;;;;;;6236708;22;20040;-62